createdAt,value
2019-04-07T00:00:12.349Z,12.16
2019-04-07T00:01:12.326Z,12.13
2019-04-07T00:02:12.202Z,12.02
2019-04-07T00:03:12.722Z,12.02
2019-04-07T00:04:12.144Z,12.05
2019-04-07T00:05:14.710Z,12.09
2019-04-07T00:06:11.908Z,12.02
2019-04-07T00:07:12.061Z,12.12
2019-04-07T00:08:12.319Z,12.09
2019-04-07T00:09:11.964Z,12.13
2019-04-07T00:10:12.046Z,12.14
2019-04-07T00:11:11.538Z,12.17
2019-04-07T00:12:11.466Z,12.17
2019-04-07T00:13:11.404Z,12.13
2019-04-07T00:14:11.335Z,12.17
2019-04-07T00:15:11.333Z,12.19
2019-04-07T00:16:11.187Z,12.16
2019-04-07T00:17:12.153Z,12.17
2019-04-07T00:18:11.042Z,12.23
2019-04-07T00:19:11.151Z,12.23
2019-04-07T00:20:10.905Z,12.20
2019-04-07T00:21:11.293Z,12.14
2019-04-07T00:22:11.326Z,12.04
2019-04-07T00:23:10.716Z,12.10
2019-04-07T00:24:10.595Z,12.10
2019-04-07T00:25:10.592Z,12.05
2019-04-07T00:26:10.468Z,12.05
2019-04-07T00:27:10.394Z,12.05
2019-04-07T00:28:10.322Z,12.16
2019-04-07T00:29:10.239Z,12.16
2019-04-07T00:30:10.162Z,12.20
2019-04-07T00:31:10.105Z,12.23
2019-04-07T00:32:10.033Z,12.20
2019-04-07T00:33:09.954Z,12.27
2019-04-07T00:34:09.876Z,12.31
2019-04-07T00:35:21.091Z,12.17
2019-04-07T00:36:09.736Z,12.27
2019-04-07T00:37:09.668Z,12.24
2019-04-07T00:38:09.626Z,12.28
2019-04-07T00:39:09.564Z,12.17
2019-04-07T00:40:09.634Z,12.02
2019-04-07T00:41:09.540Z,12.05
2019-04-07T00:42:09.431Z,12.09
2019-04-07T00:43:09.947Z,12.09
2019-04-07T00:44:09.161Z,12.02
2019-04-07T00:45:09.755Z,12.13
2019-04-07T00:46:09.020Z,12.07
2019-04-07T00:47:09.422Z,12.14
2019-04-07T00:48:09.066Z,12.12
2019-04-07T00:49:09.375Z,12.13
2019-04-07T00:50:08.804Z,12.16
2019-04-07T00:51:08.664Z,12.17
2019-04-07T00:52:08.587Z,12.19
2019-04-07T00:53:08.858Z,12.24
2019-04-07T00:54:08.461Z,12.27
2019-04-07T00:55:08.867Z,12.28
2019-04-07T00:56:08.307Z,12.19
2019-04-07T00:57:08.269Z,12.19
2019-04-07T00:58:08.287Z,12.13
2019-04-07T00:59:08.093Z,12.21
2019-04-07T01:00:07.993Z,12.21
2019-04-07T01:01:08.994Z,12.34
2019-04-07T01:02:07.874Z,12.39
2019-04-07T01:03:08.304Z,12.35
2019-04-07T01:04:07.707Z,12.37
2019-04-07T01:05:07.692Z,12.41
2019-04-07T01:06:07.633Z,12.17
2019-04-07T01:07:08.095Z,12.16
2019-04-07T01:08:07.427Z,12.10
2019-04-07T01:09:07.819Z,12.14
2019-04-07T01:10:07.284Z,12.04
2019-04-07T01:11:07.710Z,12.09
2019-04-07T01:12:07.223Z,12.05
2019-04-07T01:13:07.707Z,12.07
2019-04-07T01:14:07.043Z,11.88
2019-04-07T01:15:07.634Z,11.58
2019-04-07T01:16:06.848Z,11.46
2019-04-07T01:17:07.097Z,11.40
2019-04-07T01:18:06.695Z,11.43
2019-04-07T01:19:07.325Z,11.46
2019-04-07T01:20:06.581Z,11.46
2019-04-07T01:21:06.491Z,11.42
2019-04-07T01:22:06.503Z,11.42
2019-04-07T01:23:06.990Z,11.39
2019-04-07T01:24:06.539Z,11.44
2019-04-07T01:25:06.208Z,11.44
2019-04-07T01:26:06.418Z,11.52
2019-04-07T01:27:06.051Z,11.47
2019-04-07T01:28:06.602Z,11.57
2019-04-07T01:29:05.890Z,11.58
2019-04-07T01:30:06.280Z,11.69
2019-04-07T01:31:05.758Z,11.64
2019-04-07T01:32:06.054Z,11.67
2019-04-07T01:33:05.622Z,11.67
2019-04-07T01:34:05.544Z,11.80
2019-04-07T01:35:05.799Z,11.69
2019-04-07T01:36:05.391Z,11.65
2019-04-07T01:37:05.617Z,11.69
2019-04-07T01:38:05.252Z,11.72
2019-04-07T01:39:05.176Z,11.67
2019-04-07T01:40:05.752Z,11.76
2019-04-07T01:41:05.019Z,11.70
2019-04-07T01:42:05.050Z,11.64
2019-04-07T01:43:05.334Z,11.64
2019-04-07T01:44:04.832Z,11.83
2019-04-07T01:45:05.162Z,11.76
2019-04-07T01:46:05.198Z,11.67
2019-04-07T01:47:04.729Z,11.83
2019-04-07T01:48:04.951Z,11.88
2019-04-07T01:49:04.442Z,11.86
2019-04-07T01:50:04.366Z,12.01
2019-04-07T01:51:04.500Z,11.95
2019-04-07T01:52:04.276Z,11.96
2019-04-07T01:53:04.640Z,12.05
2019-04-07T01:54:04.081Z,12.02
2019-04-07T01:55:04.006Z,11.98
2019-04-07T01:56:03.933Z,11.96
2019-04-07T01:57:04.478Z,11.86
2019-04-07T01:58:04.020Z,11.83
2019-04-07T01:59:03.754Z,11.85
2019-04-07T02:00:03.643Z,11.76
2019-04-07T02:01:03.578Z,11.83
2019-04-07T02:02:03.559Z,11.83
2019-04-07T02:03:03.473Z,11.79
2019-04-07T02:04:03.938Z,11.80
2019-04-07T02:05:03.477Z,11.86
2019-04-07T02:06:05.017Z,11.88
2019-04-07T02:07:03.149Z,11.82
2019-04-07T02:08:03.080Z,11.86
2019-04-07T02:09:02.997Z,11.95
2019-04-07T02:10:02.923Z,12.07
2019-04-07T02:11:02.842Z,12.04
2019-04-07T02:12:03.386Z,12.01
2019-04-07T02:13:03.222Z,12.05
2019-04-07T02:14:02.637Z,12.01
2019-04-07T02:15:02.566Z,12.07
2019-04-07T02:16:02.827Z,12.09
2019-04-07T02:17:02.407Z,12.05
2019-04-07T02:18:02.508Z,12.13
2019-04-07T02:19:02.852Z,12.17
2019-04-07T02:20:02.641Z,12.17
2019-04-07T02:21:02.186Z,12.17
2019-04-07T02:22:02.055Z,12.21
2019-04-07T02:23:02.026Z,12.05
2019-04-07T02:24:02.579Z,11.98
2019-04-07T02:25:01.888Z,11.95
2019-04-07T02:26:02.342Z,12.02
2019-04-07T02:27:01.845Z,12.04
2019-04-07T02:28:02.306Z,12.07
2019-04-07T02:29:01.629Z,12.05
2019-04-07T02:30:01.837Z,12.04
2019-04-07T02:31:01.393Z,12.09
2019-04-07T02:32:01.471Z,12.12
2019-04-07T02:33:02.283Z,12.13
2019-04-07T02:34:01.185Z,12.17
2019-04-07T02:35:01.526Z,11.99
2019-04-07T02:36:16.053Z,12.02
2019-04-07T02:37:00.961Z,12.12
2019-04-07T02:38:00.883Z,12.01
2019-04-07T02:39:00.832Z,12.02
2019-04-07T02:40:00.752Z,12.04
2019-04-07T02:41:00.667Z,12.02
2019-04-07T02:42:00.595Z,12.12
2019-04-07T02:43:00.873Z,12.17
2019-04-07T02:44:00.447Z,12.01
2019-04-07T02:45:01.327Z,12.09
2019-04-07T02:46:00.316Z,12.01
2019-04-07T02:47:00.883Z,12.05
2019-04-07T02:48:01.151Z,12.05
2019-04-07T02:49:00.089Z,12.01
2019-04-07T02:50:00.017Z,11.96
2019-04-07T02:50:59.941Z,11.90
2019-04-07T02:52:00.506Z,11.83
2019-04-07T02:52:59.887Z,11.99
2019-04-07T02:54:00.661Z,11.83
2019-04-07T02:54:59.656Z,11.88
2019-04-07T02:56:00.340Z,11.83
2019-04-07T02:57:00.460Z,11.91
2019-04-07T02:57:59.621Z,11.82
2019-04-07T02:58:59.462Z,11.86
2019-04-07T02:59:59.642Z,11.83
2019-04-07T03:00:59.313Z,11.86
2019-04-07T03:01:59.410Z,11.88
2019-04-07T03:02:59.085Z,11.86
2019-04-07T03:03:59.924Z,11.83
2019-04-07T03:04:59.877Z,11.82
2019-04-07T03:05:58.857Z,11.80
2019-04-07T03:06:58.842Z,11.85
2019-04-07T03:07:59.493Z,11.80
2019-04-07T03:08:59.455Z,11.95
2019-04-07T03:09:58.586Z,11.96
2019-04-07T03:10:58.716Z,12.07
2019-04-07T03:11:58.420Z,12.01
2019-04-07T03:12:58.785Z,12.09
2019-04-07T03:13:58.707Z,12.12
2019-04-07T03:14:58.503Z,12.12
2019-04-07T03:15:58.143Z,12.05
2019-04-07T03:16:58.059Z,12.07
2019-04-07T03:17:57.984Z,12.05
2019-04-07T03:18:58.030Z,12.12
2019-04-07T03:19:57.863Z,12.07
2019-04-07T03:20:57.783Z,12.10
2019-04-07T03:21:57.872Z,12.10
2019-04-07T03:22:57.652Z,12.12
2019-04-07T03:23:58.370Z,12.16
2019-04-07T03:24:58.255Z,12.13
2019-04-07T03:25:58.124Z,12.09
2019-04-07T03:26:57.347Z,12.04
2019-04-07T03:27:57.403Z,11.96
2019-04-07T03:28:58.010Z,11.98
2019-04-07T03:29:57.116Z,11.96
2019-04-07T03:30:59.100Z,11.99
2019-04-07T03:31:59.558Z,12.07
2019-04-07T03:32:58.059Z,12.07
2019-04-07T03:33:58.334Z,12.01
2019-04-07T03:34:58.156Z,12.01
2019-04-07T03:36:00.585Z,11.95
2019-04-07T03:37:18.264Z,11.94
2019-04-07T03:37:57.131Z,11.83
2019-04-07T03:38:56.474Z,11.75
2019-04-07T03:39:56.881Z,11.58
2019-04-07T03:40:56.949Z,11.60
2019-04-07T03:41:56.251Z,11.51
2019-04-07T03:42:56.270Z,11.44
2019-04-07T03:43:56.999Z,11.44
2019-04-07T03:44:56.678Z,11.51
2019-04-07T03:45:55.955Z,11.55
2019-04-07T03:46:55.881Z,11.54
2019-04-07T03:47:55.804Z,11.49
2019-04-07T03:48:55.747Z,11.51
2019-04-07T03:49:55.682Z,11.62
2019-04-07T03:50:55.600Z,11.65
2019-04-07T03:51:56.008Z,11.57
2019-04-07T03:52:56.370Z,11.62
2019-04-07T03:53:56.011Z,11.62
2019-04-07T03:54:55.297Z,11.62
2019-04-07T03:55:55.238Z,11.49
2019-04-07T03:56:55.161Z,11.49
2019-04-07T03:57:55.079Z,11.54
2019-04-07T03:58:55.808Z,11.55
2019-04-07T03:59:55.510Z,11.51
2019-04-07T04:00:55.098Z,11.44
2019-04-07T04:01:54.799Z,11.42
2019-04-07T04:02:54.870Z,11.19
2019-04-07T04:03:55.354Z,11.19
2019-04-07T04:04:55.486Z,11.06
2019-04-07T04:05:55.108Z,11.07
2019-04-07T04:06:54.759Z,10.96
2019-04-07T04:07:54.642Z,11.07
2019-04-07T04:08:54.979Z,11.14
2019-04-07T04:09:54.203Z,11.22
2019-04-07T04:10:54.138Z,11.22
2019-04-07T04:11:54.074Z,11.24
2019-04-07T04:12:53.993Z,11.22
2019-04-07T04:13:54.790Z,11.24
2019-04-07T04:14:54.731Z,11.21
2019-04-07T04:15:53.771Z,11.21
2019-04-07T04:16:54.316Z,11.25
2019-04-07T04:17:53.923Z,11.28
2019-04-07T04:18:53.645Z,11.35
2019-04-07T04:19:53.484Z,11.43
2019-04-07T04:20:54.249Z,11.43
2019-04-07T04:21:54.198Z,11.44
2019-04-07T04:22:53.255Z,11.44
2019-04-07T04:23:53.192Z,11.43
2019-04-07T04:24:53.451Z,11.42
2019-04-07T04:25:53.720Z,11.39
2019-04-07T04:26:53.750Z,11.35
2019-04-07T04:27:53.033Z,11.24
2019-04-07T04:28:52.815Z,11.22
2019-04-07T04:29:53.397Z,11.25
2019-04-07T04:30:53.648Z,11.22
2019-04-07T04:31:52.863Z,11.40
2019-04-07T04:32:52.518Z,11.37
2019-04-07T04:33:53.256Z,11.40
2019-04-07T04:34:53.072Z,11.40
2019-04-07T04:35:52.315Z,11.44
2019-04-07T04:36:53.043Z,11.42
2019-04-07T04:37:53.900Z,11.49
2019-04-07T04:38:52.914Z,11.43
2019-04-07T04:39:52.813Z,11.51
2019-04-07T04:40:52.755Z,11.57
2019-04-07T04:41:52.088Z,11.55
2019-04-07T04:42:52.109Z,11.58
2019-04-07T04:43:51.727Z,11.44
2019-04-07T04:44:52.314Z,11.33
2019-04-07T04:45:53.239Z,11.33
2019-04-07T04:46:51.495Z,11.29
2019-04-07T04:47:51.655Z,11.27
2019-04-07T04:48:51.709Z,11.24
2019-04-07T04:49:52.653Z,11.17
2019-04-07T04:50:51.231Z,11.21
2019-04-07T04:51:51.838Z,11.19
2019-04-07T04:52:51.064Z,11.22
2019-04-07T04:53:51.757Z,11.19
2019-04-07T04:54:51.777Z,11.18
2019-04-07T04:55:51.492Z,11.18
2019-04-07T04:56:51.579Z,11.18
2019-04-07T04:57:51.174Z,11.21
2019-04-07T04:58:50.798Z,11.18
2019-04-07T04:59:50.728Z,11.18
2019-04-07T05:00:50.808Z,11.11
2019-04-07T05:01:51.095Z,11.21
2019-04-07T05:02:50.345Z,11.21
2019-04-07T05:03:50.706Z,11.24
2019-04-07T05:04:50.224Z,11.18
2019-04-07T05:05:50.110Z,11.19
2019-04-07T05:06:50.041Z,11.25
2019-04-07T05:07:59.167Z,11.19
2019-04-07T05:08:50.032Z,11.28
2019-04-07T05:09:52.613Z,11.33
2019-04-07T05:10:49.744Z,11.35
2019-04-07T05:11:49.706Z,11.32
2019-04-07T05:12:50.249Z,11.32
2019-04-07T05:13:50.150Z,11.35
2019-04-07T05:14:49.465Z,11.39
2019-04-07T05:15:50.104Z,11.49
2019-04-07T05:16:49.307Z,11.39
2019-04-07T05:17:49.292Z,11.49
2019-04-07T05:18:49.214Z,11.39
2019-04-07T05:19:49.082Z,11.51
2019-04-07T05:20:49.008Z,11.52
2019-04-07T05:21:49.487Z,11.62
2019-04-07T05:22:48.872Z,11.49
2019-04-07T05:23:48.819Z,11.47
2019-04-07T05:24:48.851Z,11.37
2019-04-07T05:25:49.163Z,11.43
2019-04-07T05:26:48.603Z,11.39
2019-04-07T05:27:49.116Z,11.36
2019-04-07T05:28:48.430Z,11.25
2019-04-07T05:29:49.434Z,11.10
2019-04-07T05:30:48.943Z,11.06
2019-04-07T05:31:48.223Z,10.94
2019-04-07T05:32:48.880Z,11.04
2019-04-07T05:33:48.059Z,11.06
2019-04-07T05:34:47.990Z,11.14
2019-04-07T05:35:48.355Z,11.14
2019-04-07T05:36:47.890Z,11.11
2019-04-07T05:37:59.436Z,11.10
2019-04-07T05:38:47.705Z,11.19
2019-04-07T05:39:48.358Z,11.19
2019-04-07T05:40:47.565Z,11.24
2019-04-07T05:41:48.119Z,11.37
2019-04-07T05:42:47.523Z,11.44
2019-04-07T05:43:48.085Z,11.46
2019-04-07T05:44:47.620Z,11.42
2019-04-07T05:45:47.198Z,11.29
2019-04-07T05:46:49.486Z,11.33
2019-04-07T05:47:48.709Z,11.24
2019-04-07T05:48:49.395Z,11.35
2019-04-07T05:49:46.902Z,11.36
2019-04-07T05:50:47.277Z,11.44
2019-04-07T05:51:47.127Z,11.42
2019-04-07T05:52:46.670Z,11.39
2019-04-07T05:53:48.316Z,11.51
2019-04-07T05:54:49.550Z,11.49
2019-04-07T05:55:46.852Z,11.57
2019-04-07T05:56:46.417Z,11.49
2019-04-07T05:57:46.561Z,11.47
2019-04-07T05:58:46.311Z,11.49
2019-04-07T05:59:46.158Z,11.49
2019-04-07T06:00:47.431Z,11.57
2019-04-07T06:01:46.672Z,11.57
2019-04-07T06:02:45.934Z,11.44
2019-04-07T06:03:45.925Z,11.40
2019-04-07T06:04:46.815Z,11.42
2019-04-07T06:05:48.286Z,11.22
2019-04-07T06:06:46.267Z,11.25
2019-04-07T06:07:45.917Z,11.22
2019-04-07T06:08:47.807Z,11.24
2019-04-07T06:09:45.495Z,11.19
2019-04-07T06:10:45.897Z,11.15
2019-04-07T06:11:45.440Z,11.15
2019-04-07T06:12:47.919Z,11.15
2019-04-07T06:13:45.566Z,11.10
2019-04-07T06:14:46.561Z,11.11
2019-04-07T06:15:45.747Z,11.15
2019-04-07T06:16:45.189Z,11.11
2019-04-07T06:17:44.842Z,11.11
2019-04-07T06:18:45.287Z,11.09
2019-04-07T06:19:44.707Z,11.14
2019-04-07T06:20:45.784Z,11.04
2019-04-07T06:21:47.218Z,11.04
2019-04-07T06:22:46.603Z,11.00
2019-04-07T06:23:44.413Z,11.02
2019-04-07T06:24:44.827Z,11.02
2019-04-07T06:25:45.146Z,10.94
2019-04-07T06:26:48.117Z,10.89
2019-04-07T06:27:45.306Z,10.91
2019-04-07T06:28:48.467Z,10.86
2019-04-07T06:29:44.633Z,10.86
2019-04-07T06:30:44.015Z,10.94
2019-04-07T06:31:43.830Z,10.92
2019-04-07T06:32:44.685Z,11.02
2019-04-07T06:33:43.686Z,11.02
2019-04-07T06:34:44.432Z,11.14
2019-04-07T06:35:45.071Z,11.22
2019-04-07T06:36:44.162Z,11.29
2019-04-07T06:37:43.395Z,11.35
2019-04-07T06:38:50.326Z,11.40
2019-04-07T06:39:44.012Z,11.43
2019-04-07T06:40:43.733Z,11.58
2019-04-07T06:41:43.283Z,11.54
2019-04-07T06:42:44.742Z,11.75
2019-04-07T06:43:42.951Z,11.78
2019-04-07T06:44:43.503Z,11.86
2019-04-07T06:45:42.810Z,11.82
2019-04-07T06:46:43.429Z,11.95
2019-04-07T06:47:43.287Z,11.82
2019-04-07T06:48:42.578Z,11.88
2019-04-07T06:49:44.750Z,11.72
2019-04-07T06:50:49.487Z,11.58
2019-04-07T06:51:42.454Z,11.55
2019-04-07T06:52:42.311Z,11.49
2019-04-07T06:53:43.050Z,11.52
2019-04-07T06:54:42.142Z,11.51
2019-04-07T06:55:42.737Z,11.61
2019-04-07T06:56:42.013Z,11.69
2019-04-07T06:57:41.953Z,11.78
2019-04-07T06:58:41.935Z,11.88
2019-04-07T06:59:45.619Z,11.86
2019-04-07T07:00:41.713Z,11.95
2019-04-07T07:01:41.638Z,12.09
2019-04-07T07:02:43.714Z,12.12
2019-04-07T07:03:42.073Z,11.95
2019-04-07T07:04:43.692Z,11.78
2019-04-07T07:05:45.364Z,11.88
2019-04-07T07:06:42.117Z,11.67
2019-04-07T07:07:41.424Z,11.70
2019-04-07T07:08:45.869Z,11.70
2019-04-07T07:09:41.713Z,11.88
2019-04-07T07:10:42.174Z,12.04
2019-04-07T07:11:43.039Z,12.05
2019-04-07T07:12:41.229Z,12.21
2019-04-07T07:13:42.989Z,12.20
2019-04-07T07:14:44.520Z,12.23
2019-04-07T07:15:40.670Z,12.34
2019-04-07T07:16:43.589Z,12.28
2019-04-07T07:17:41.152Z,12.24
2019-04-07T07:18:40.430Z,12.17
2019-04-07T07:19:40.352Z,12.24
2019-04-07T07:20:40.529Z,12.28
2019-04-07T07:21:40.213Z,12.50
2019-04-07T07:22:41.702Z,12.52
2019-04-07T07:23:44.829Z,12.64
2019-04-07T07:24:39.993Z,12.82
2019-04-07T07:25:39.951Z,12.89
2019-04-07T07:26:39.970Z,12.95
2019-04-07T07:27:41.692Z,13.00
2019-04-07T07:28:42.866Z,12.97
2019-04-07T07:29:39.879Z,12.96
2019-04-07T07:30:40.395Z,12.86
2019-04-07T07:31:40.316Z,12.87
2019-04-07T07:32:39.931Z,12.70
2019-04-07T07:33:41.777Z,12.64
2019-04-07T07:34:41.303Z,12.67
2019-04-07T07:35:39.807Z,12.57
2019-04-07T07:36:39.132Z,12.65
2019-04-07T07:37:39.068Z,12.82
2019-04-07T07:38:39.729Z,12.87
2019-04-07T07:39:41.933Z,12.85
2019-04-07T07:40:39.611Z,12.97
2019-04-07T07:41:38.953Z,12.93
2019-04-07T07:42:38.723Z,12.96
2019-04-07T07:43:39.075Z,13.07
2019-04-07T07:44:39.724Z,13.01
2019-04-07T07:45:43.614Z,13.10
2019-04-07T07:46:38.578Z,13.22
2019-04-07T07:47:38.446Z,13.22
2019-04-07T07:48:38.882Z,13.30
2019-04-07T07:49:40.348Z,13.33
2019-04-07T07:50:40.313Z,13.42
2019-04-07T07:51:39.521Z,13.48
2019-04-07T07:52:38.563Z,13.48
2019-04-07T07:53:38.317Z,13.52
2019-04-07T07:54:38.488Z,13.49
2019-04-07T07:55:38.576Z,13.36
2019-04-07T07:56:38.697Z,13.41
2019-04-07T07:57:37.935Z,13.62
2019-04-07T07:58:37.586Z,13.85
2019-04-07T07:59:38.968Z,13.82
2019-04-07T08:00:40.384Z,13.79
2019-04-07T08:01:37.409Z,13.70
2019-04-07T08:02:37.319Z,13.70
2019-04-07T08:03:37.245Z,13.59
2019-04-07T08:04:37.742Z,13.49
2019-04-07T08:05:37.619Z,13.67
2019-04-07T08:06:40.186Z,13.69
2019-04-07T08:07:36.977Z,13.73
2019-04-07T08:08:37.281Z,13.57
2019-04-07T08:09:37.048Z,13.66
2019-04-07T08:10:37.572Z,13.87
2019-04-07T08:11:37.375Z,13.78
2019-04-07T08:12:36.631Z,13.99
2019-04-07T08:13:42.066Z,14.02
2019-04-07T08:14:37.115Z,13.95
2019-04-07T08:15:36.579Z,13.96
2019-04-07T08:16:37.285Z,13.99
2019-04-07T08:17:36.562Z,14.00
2019-04-07T08:18:39.399Z,14.03
2019-04-07T08:19:40.465Z,14.00
2019-04-07T08:20:36.077Z,13.64
2019-04-07T08:21:35.992Z,13.79
2019-04-07T08:22:41.317Z,13.49
2019-04-07T08:23:36.254Z,13.59
2019-04-07T08:24:36.223Z,13.71
2019-04-07T08:25:35.852Z,13.75
2019-04-07T08:26:35.656Z,13.70
2019-04-07T08:27:35.599Z,13.73
2019-04-07T08:28:36.121Z,13.69
2019-04-07T08:29:37.240Z,13.79
2019-04-07T08:30:36.080Z,13.84
2019-04-07T08:31:35.302Z,13.60
2019-04-07T08:32:35.231Z,13.23
2019-04-07T08:33:35.532Z,13.39
2019-04-07T08:34:35.092Z,13.44
2019-04-07T08:35:38.720Z,13.54
2019-04-07T08:36:34.967Z,13.63
2019-04-07T08:37:35.215Z,13.84
2019-04-07T08:38:35.401Z,13.73
2019-04-07T08:39:36.112Z,13.91
2019-04-07T08:40:36.483Z,14.03
2019-04-07T08:41:34.605Z,13.82
2019-04-07T08:42:34.539Z,13.85
2019-04-07T08:43:35.128Z,13.87
2019-04-07T08:44:34.483Z,14.02
2019-04-07T08:45:35.041Z,14.17
2019-04-07T08:46:39.716Z,14.17
2019-04-07T08:47:34.528Z,14.04
2019-04-07T08:48:34.130Z,14.03
2019-04-07T08:49:35.357Z,13.95
2019-04-07T08:50:34.392Z,13.81
2019-04-07T08:51:33.912Z,13.85
2019-04-07T08:52:34.358Z,13.87
2019-04-07T08:53:34.215Z,13.96
2019-04-07T08:54:33.706Z,13.92
2019-04-07T08:55:34.464Z,13.89
2019-04-07T08:56:34.168Z,13.91
2019-04-07T08:57:33.509Z,13.89
2019-04-07T08:58:37.948Z,13.95
2019-04-07T08:59:33.354Z,13.89
2019-04-07T09:00:33.644Z,13.95
2019-04-07T09:01:33.235Z,14.06
2019-04-07T09:02:33.163Z,14.04
2019-04-07T09:03:33.166Z,14.24
2019-04-07T09:04:33.013Z,14.20
2019-04-07T09:05:33.523Z,14.33
2019-04-07T09:06:33.202Z,14.27
2019-04-07T09:07:33.390Z,14.28
2019-04-07T09:08:34.712Z,14.35
2019-04-07T09:09:36.259Z,14.40
2019-04-07T09:10:34.482Z,14.50
2019-04-07T09:11:32.529Z,14.62
2019-04-07T09:12:32.487Z,14.61
2019-04-07T09:13:34.180Z,14.64
2019-04-07T09:14:32.321Z,14.51
2019-04-07T09:15:32.859Z,14.36
2019-04-07T09:16:32.197Z,14.37
2019-04-07T09:17:38.462Z,14.51
2019-04-07T09:18:32.099Z,14.37
2019-04-07T09:19:35.026Z,14.36
2019-04-07T09:20:31.922Z,14.28
2019-04-07T09:21:38.753Z,14.28
2019-04-07T09:22:32.662Z,14.33
2019-04-07T09:23:32.754Z,14.51
2019-04-07T09:24:32.750Z,14.51
2019-04-07T09:25:32.349Z,14.58
2019-04-07T09:26:32.090Z,14.51
2019-04-07T09:27:31.425Z,14.64
2019-04-07T09:28:31.626Z,14.55
2019-04-07T09:29:31.407Z,14.51
2019-04-07T09:30:31.890Z,14.64
2019-04-07T09:31:31.497Z,14.83
2019-04-07T09:32:31.091Z,14.99
2019-04-07T09:33:33.960Z,15.09
2019-04-07T09:34:30.954Z,15.06
2019-04-07T09:35:30.966Z,14.88
2019-04-07T09:36:32.602Z,14.96
2019-04-07T09:37:31.097Z,15.02
2019-04-07T09:38:30.666Z,14.96
2019-04-07T09:39:34.521Z,14.91
2019-04-07T09:40:30.539Z,14.81
2019-04-07T09:41:30.658Z,14.75
2019-04-07T09:42:30.481Z,14.78
2019-04-07T09:43:31.053Z,14.84
2019-04-07T09:44:33.881Z,14.89
2019-04-07T09:45:30.195Z,14.77
2019-04-07T09:46:30.125Z,14.75
2019-04-07T09:47:30.370Z,14.73
2019-04-07T09:48:29.977Z,14.73
2019-04-07T09:49:29.996Z,14.62
2019-04-07T09:50:29.850Z,14.72
2019-04-07T09:51:29.848Z,14.72
2019-04-07T09:52:30.502Z,14.77
2019-04-07T09:53:29.630Z,14.80
2019-04-07T09:54:29.566Z,14.61
2019-04-07T09:55:29.968Z,14.64
2019-04-07T09:56:31.418Z,14.78
2019-04-07T09:57:29.364Z,14.81
2019-04-07T09:58:29.713Z,14.84
2019-04-07T09:59:29.670Z,14.92
2019-04-07T10:00:29.915Z,14.96
2019-04-07T10:01:29.767Z,14.94
2019-04-07T10:02:31.991Z,14.96
2019-04-07T10:03:28.952Z,14.65
2019-04-07T10:04:28.871Z,14.78
2019-04-07T10:05:30.774Z,14.77
2019-04-07T10:06:28.742Z,14.64
2019-04-07T10:07:29.288Z,14.61
2019-04-07T10:08:28.606Z,14.73
2019-04-07T10:09:28.542Z,14.65
2019-04-07T10:10:29.470Z,14.73
2019-04-07T10:11:28.550Z,14.81
2019-04-07T10:12:30.048Z,14.88
2019-04-07T10:13:28.557Z,15.03
2019-04-07T10:14:28.202Z,15.13
2019-04-07T10:15:28.128Z,15.13
2019-04-07T10:16:28.490Z,14.91
2019-04-07T10:17:27.968Z,14.86
2019-04-07T10:18:28.563Z,14.89
2019-04-07T10:19:28.241Z,14.55
2019-04-07T10:20:28.547Z,14.60
2019-04-07T10:21:27.710Z,14.60
2019-04-07T10:22:27.698Z,14.46
2019-04-07T10:23:27.556Z,14.43
2019-04-07T10:24:27.498Z,14.21
2019-04-07T10:25:28.982Z,14.27
2019-04-07T10:26:27.378Z,14.27
2019-04-07T10:27:27.467Z,14.25
2019-04-07T10:28:27.683Z,14.42
2019-04-07T10:29:27.596Z,14.25
2019-04-07T10:30:27.085Z,14.35
2019-04-07T10:31:27.013Z,14.40
2019-04-07T10:32:27.836Z,14.51
2019-04-07T10:33:27.263Z,14.64
2019-04-07T10:34:27.373Z,14.61
2019-04-07T10:35:27.047Z,14.61
2019-04-07T10:36:27.041Z,14.72
2019-04-07T10:37:26.621Z,14.64
2019-04-07T10:38:26.966Z,14.62
2019-04-07T10:39:26.457Z,14.47
2019-04-07T10:40:26.502Z,14.73
2019-04-07T10:41:26.303Z,14.61
2019-04-07T10:42:27.140Z,14.77
2019-04-07T10:43:26.237Z,14.91
2019-04-07T10:44:26.117Z,15.01
2019-04-07T10:45:26.186Z,14.99
2019-04-07T10:46:26.021Z,14.80
2019-04-07T10:47:25.894Z,14.88
2019-04-07T10:48:26.179Z,14.92
2019-04-07T10:49:26.313Z,14.84
2019-04-07T10:50:25.757Z,14.95
2019-04-07T10:51:25.625Z,14.96
2019-04-07T10:52:26.058Z,14.83
2019-04-07T10:53:26.238Z,14.83
2019-04-07T10:54:25.416Z,14.75
2019-04-07T10:55:25.347Z,14.91
2019-04-07T10:56:25.505Z,15.01
2019-04-07T10:57:25.195Z,15.21
2019-04-07T10:58:25.126Z,15.20
2019-04-07T10:59:25.609Z,15.16
2019-04-07T11:00:25.810Z,15.14
2019-04-07T11:01:25.530Z,15.13
2019-04-07T11:02:25.006Z,15.20
2019-04-07T11:03:24.931Z,15.36
2019-04-07T11:04:24.723Z,15.35
2019-04-07T11:05:24.655Z,15.49
2019-04-07T11:06:24.588Z,15.39
2019-04-07T11:07:24.955Z,15.41
2019-04-07T11:08:24.459Z,15.44
2019-04-07T11:09:24.385Z,15.36
2019-04-07T11:10:34.478Z,15.39
2019-04-07T11:11:24.547Z,15.32
2019-04-07T11:12:24.172Z,15.31
2019-04-07T11:13:24.102Z,15.31
2019-04-07T11:14:24.048Z,15.31
2019-04-07T11:15:24.867Z,15.39
2019-04-07T11:16:24.715Z,15.17
2019-04-07T11:17:25.266Z,15.27
2019-04-07T11:18:23.756Z,15.32
2019-04-07T11:19:24.250Z,15.34
2019-04-07T11:20:23.607Z,15.19
2019-04-07T11:21:23.770Z,15.25
2019-04-07T11:22:23.592Z,15.29
2019-04-07T11:23:24.112Z,15.47
2019-04-07T11:24:23.997Z,15.53
2019-04-07T11:25:23.277Z,15.60
2019-04-07T11:26:23.636Z,15.53
2019-04-07T11:27:23.131Z,15.62
2019-04-07T11:28:23.060Z,15.62
2019-04-07T11:29:22.990Z,15.62
2019-04-07T11:30:22.917Z,15.64
2019-04-07T11:31:23.249Z,15.60
2019-04-07T11:32:22.943Z,15.74
2019-04-07T11:33:22.730Z,15.65
2019-04-07T11:34:22.720Z,15.71
2019-04-07T11:35:23.278Z,15.71
2019-04-07T11:36:23.517Z,15.72
2019-04-07T11:37:23.287Z,15.67
2019-04-07T11:38:22.995Z,15.74
2019-04-07T11:39:23.074Z,15.78
2019-04-07T11:40:22.667Z,15.83
2019-04-07T11:41:25.475Z,15.93
2019-04-07T11:42:22.954Z,15.96
2019-04-07T11:43:22.761Z,16.04
2019-04-07T11:44:22.828Z,16.04
2019-04-07T11:45:22.689Z,15.96
2019-04-07T11:46:22.035Z,15.84
2019-04-07T11:47:21.751Z,15.92
2019-04-07T11:48:22.017Z,15.83
2019-04-07T11:49:22.964Z,15.78
2019-04-07T11:50:22.235Z,15.56
2019-04-07T11:51:21.476Z,15.62
2019-04-07T11:52:21.414Z,15.43
2019-04-07T11:53:21.326Z,15.50
2019-04-07T11:54:21.636Z,15.59
2019-04-07T11:55:21.710Z,15.60
2019-04-07T11:56:21.759Z,15.51
2019-04-07T11:57:21.533Z,15.47
2019-04-07T11:58:28.849Z,15.31
2019-04-07T11:59:21.923Z,15.41
2019-04-07T12:00:20.894Z,15.46
2019-04-07T12:01:20.790Z,15.62
2019-04-07T12:02:21.759Z,15.65
2019-04-07T12:03:24.766Z,15.64
2019-04-07T12:04:20.565Z,15.62
2019-04-07T12:05:21.129Z,15.68
2019-04-07T12:06:23.378Z,15.74
2019-04-07T12:07:21.907Z,15.71
2019-04-07T12:08:20.411Z,15.68
2019-04-07T12:09:20.677Z,15.57
2019-04-07T12:10:20.325Z,15.49
2019-04-07T12:11:20.077Z,15.51
2019-04-07T12:12:20.257Z,15.50
2019-04-07T12:13:20.041Z,15.62
2019-04-07T12:14:20.290Z,15.49
2019-04-07T12:15:24.208Z,15.50
2019-04-07T12:16:20.119Z,15.39
2019-04-07T12:17:19.963Z,15.49
2019-04-07T12:18:20.266Z,15.47
2019-04-07T12:19:22.801Z,15.41
2019-04-07T12:20:19.602Z,15.47
2019-04-07T12:21:23.238Z,15.51
2019-04-07T12:22:19.323Z,15.57
2019-04-07T12:23:23.338Z,15.68
2019-04-07T12:24:19.194Z,15.57
2019-04-07T12:25:19.979Z,15.47
2019-04-07T12:26:19.042Z,15.50
2019-04-07T12:27:21.150Z,15.65
2019-04-07T12:28:19.425Z,15.72
2019-04-07T12:29:18.939Z,15.69
2019-04-07T12:30:21.382Z,15.75
2019-04-07T12:31:18.806Z,15.80
2019-04-07T12:32:19.121Z,15.93
2019-04-07T12:33:19.061Z,16.00
2019-04-07T12:34:18.964Z,15.93
2019-04-07T12:35:19.494Z,16.04
2019-04-07T12:36:18.533Z,16.04
2019-04-07T12:37:18.769Z,16.00
2019-04-07T12:38:19.262Z,16.00
2019-04-07T12:39:18.976Z,15.97
2019-04-07T12:40:20.715Z,16.02
2019-04-07T12:41:21.746Z,16.01
2019-04-07T12:42:20.205Z,16.05
2019-04-07T12:43:18.558Z,16.04
2019-04-07T12:44:17.793Z,16.11
2019-04-07T12:45:18.002Z,16.02
2019-04-07T12:46:17.767Z,16.01
2019-04-07T12:47:18.185Z,16.11
2019-04-07T12:48:17.870Z,16.15
2019-04-07T12:49:17.430Z,16.17
2019-04-07T12:50:18.820Z,16.20
2019-04-07T12:51:17.616Z,16.20